createdAt,value
2022-12-11T00:02:02.215Z,50.81
2022-12-11T00:04:30.616Z,50.83
2022-12-11T00:07:00.010Z,52.28
2022-12-11T00:09:27.984Z,51.82
2022-12-11T00:11:56.329Z,49.54
2022-12-11T00:14:24.220Z,51.29
2022-12-11T00:16:52.142Z,48.98
2022-12-11T00:19:19.929Z,49.19
2022-12-11T00:21:48.012Z,50.01
2022-12-11T00:24:17.268Z,51.61
2022-12-11T00:26:45.037Z,51.94
2022-12-11T00:29:14.541Z,50.34
2022-12-11T00:31:45.675Z,47.82
2022-12-11T00:34:13.624Z,47.86
2022-12-11T00:36:41.650Z,46.22
2022-12-11T00:39:09.504Z,48.48
2022-12-11T00:41:38.722Z,51.06
2022-12-11T00:44:06.722Z,51.54
2022-12-11T00:46:34.601Z,47.85
2022-12-11T00:49:02.550Z,48.43
2022-12-11T00:51:30.468Z,50.86
2022-12-11T00:53:58.349Z,49.02
2022-12-11T00:56:26.242Z,49.15
2022-12-11T00:58:55.467Z,51.14
2022-12-11T01:01:25.164Z,49.60
2022-12-11T01:03:53.557Z,48.88
2022-12-11T01:06:24.351Z,48.06
2022-12-11T01:09:14.301Z,50.78
2022-12-11T01:11:42.509Z,49.53
2022-12-11T01:14:12.964Z,48.21
2022-12-11T01:16:40.953Z,48.78
2022-12-11T01:19:08.943Z,47.78
2022-12-11T01:21:36.786Z,45.89
2022-12-11T01:24:05.143Z,46.33
2022-12-11T01:26:33.059Z,46.54
2022-12-11T01:29:01.358Z,46.27
2022-12-11T01:31:30.733Z,49.68
2022-12-11T01:33:58.579Z,48.91
2022-12-11T01:36:26.397Z,48.97
2022-12-11T01:38:54.472Z,51.48
2022-12-11T01:41:22.819Z,51.31
2022-12-11T01:44:01.364Z,53.83
2022-12-11T01:46:31.415Z,56.60
2022-12-11T01:49:00.068Z,56.12
2022-12-11T01:51:28.423Z,53.04
2022-12-11T01:54:00.788Z,50.68
2022-12-11T01:56:31.365Z,48.88
2022-12-11T01:59:07.013Z,51.14
2022-12-11T02:01:38.941Z,49.39
2022-12-11T02:04:08.210Z,47.42
2022-12-11T02:06:38.177Z,47.76
2022-12-11T02:09:08.008Z,47.48
2022-12-11T02:11:51.621Z,49.98
2022-12-11T02:14:28.687Z,49.27
2022-12-11T02:17:02.868Z,49.48
2022-12-11T02:19:46.456Z,50.43
2022-12-11T02:22:19.595Z,49.29
2022-12-11T02:24:55.757Z,49.73
2022-12-11T02:27:30.440Z,53.55
2022-12-11T02:30:03.461Z,55.17
2022-12-11T02:32:35.408Z,50.72
2022-12-11T02:35:09.465Z,51.79
2022-12-11T02:37:39.217Z,54.16
2022-12-11T02:40:11.277Z,52.83
2022-12-11T02:42:41.611Z,50.98
2022-12-11T02:45:12.855Z,48.57
2022-12-11T02:47:41.307Z,51.11
2022-12-11T02:50:14.721Z,52.71
2022-12-11T02:52:43.715Z,55.59
2022-12-11T02:55:13.982Z,54.56
2022-12-11T02:57:46.185Z,55.92
2022-12-11T03:00:16.685Z,54.73
2022-12-11T03:02:45.096Z,54.75
2022-12-11T03:05:13.684Z,60.25
2022-12-11T03:07:43.928Z,57.02
2022-12-11T03:10:15.561Z,56.68
2022-12-11T03:12:48.121Z,49.74
2022-12-11T03:15:23.084Z,51.10
2022-12-11T03:17:59.962Z,48.88
2022-12-11T03:20:36.569Z,53.57
2022-12-11T03:23:10.878Z,51.83
2022-12-11T03:25:43.551Z,51.13
2022-12-11T03:28:14.003Z,50.30
2022-12-11T03:30:45.278Z,49.54
2022-12-11T03:33:17.164Z,49.29
2022-12-11T03:35:46.694Z,58.60
2022-12-11T03:38:18.533Z,55.43
2022-12-11T03:40:47.812Z,49.44
2022-12-11T03:43:18.815Z,49.10
2022-12-11T03:45:50.188Z,55.69
2022-12-11T03:48:18.813Z,51.13
2022-12-11T03:50:47.302Z,52.74
2022-12-11T03:53:16.252Z,51.43
2022-12-11T03:55:44.234Z,52.00
2022-12-11T03:58:12.063Z,53.48
2022-12-11T04:00:40.212Z,54.72
2022-12-11T04:03:15.873Z,59.20
2022-12-11T04:05:45.680Z,56.34
2022-12-11T04:08:14.019Z,53.63
2022-12-11T04:10:42.114Z,56.38
2022-12-11T04:13:11.984Z,62.13
2022-12-11T04:15:39.838Z,57.23
2022-12-11T04:18:26.894Z,57.98
2022-12-11T04:21:12.850Z,62.59
2022-12-11T04:23:58.084Z,55.08
2022-12-11T04:26:26.122Z,65.07
2022-12-11T04:28:53.896Z,65.09
2022-12-11T04:31:23.143Z,55.26
2022-12-11T04:33:53.181Z,51.48
2022-12-11T04:36:21.197Z,52.95
2022-12-11T04:38:48.966Z,51.54
2022-12-11T04:41:17.543Z,53.14
2022-12-11T04:43:46.093Z,54.78
2022-12-11T04:46:16.095Z,56.16
2022-12-11T04:48:44.551Z,58.34
2022-12-11T04:51:14.213Z,60.04
2022-12-11T04:53:42.220Z,56.02
2022-12-11T04:56:11.561Z,59.38
2022-12-11T04:58:39.890Z,58.80
2022-12-11T05:01:11.374Z,56.73
2022-12-11T05:03:39.368Z,57.76
2022-12-11T05:06:08.102Z,66.54
2022-12-11T05:08:40.128Z,59.03
2022-12-11T05:11:10.045Z,60.21
2022-12-11T05:13:37.901Z,69.25
2022-12-11T05:16:06.724Z,63.60
2022-12-11T05:18:34.931Z,68.63
2022-12-11T05:21:05.074Z,65.83
2022-12-11T05:23:33.389Z,63.23
2022-12-11T05:26:04.904Z,67.35
2022-12-11T05:28:34.538Z,81.83
2022-12-11T05:31:04.305Z,65.88
2022-12-11T05:33:32.691Z,69.50
2022-12-11T05:36:00.450Z,62.48
2022-12-11T05:38:28.461Z,60.35
2022-12-11T05:40:57.926Z,53.95
2022-12-11T05:43:28.204Z,56.15
2022-12-11T05:45:56.278Z,59.48
2022-12-11T05:48:24.446Z,56.50
2022-12-11T05:50:59.191Z,49.58
2022-12-11T05:53:27.411Z,54.07
2022-12-11T05:55:55.445Z,51.58
2022-12-11T05:58:23.346Z,50.82
2022-12-11T06:00:52.555Z,51.42
2022-12-11T06:03:20.437Z,53.09
2022-12-11T06:05:48.310Z,56.38
2022-12-11T06:08:16.251Z,55.37
2022-12-11T06:10:46.821Z,59.45
2022-12-11T06:13:15.031Z,54.78
2022-12-11T06:15:43.064Z,54.59
2022-12-11T06:18:12.279Z,75.47
2022-12-11T06:20:40.407Z,76.70
2022-12-11T06:23:08.400Z,67.95
2022-12-11T06:25:36.340Z,63.35
2022-12-11T06:28:04.212Z,74.82
2022-12-11T06:30:38.594Z,61.03
2022-12-11T06:33:07.281Z,57.50
2022-12-11T06:35:41.976Z,58.14
2022-12-11T06:38:10.927Z,60.09
2022-12-11T06:40:38.806Z,56.62
2022-12-11T06:43:06.882Z,64.02
2022-12-11T06:45:34.698Z,72.64
2022-12-11T06:48:02.636Z,59.45
2022-12-11T06:50:30.432Z,66.97
2022-12-11T06:52:59.575Z,58.90
2022-12-11T06:55:27.381Z,58.64
2022-12-11T06:57:55.197Z,66.68
2022-12-11T07:00:23.216Z,67.97
2022-12-11T07:02:52.300Z,74.53
2022-12-11T07:05:20.120Z,63.73
2022-12-11T07:07:48.041Z,58.93
2022-12-11T07:10:17.525Z,56.98
2022-12-11T07:12:45.461Z,54.51
2022-12-11T07:15:13.949Z,54.22
2022-12-11T07:17:41.831Z,54.51
2022-12-11T07:20:10.811Z,56.57
2022-12-11T07:22:44.634Z,55.18
2022-12-11T07:25:14.231Z,60.88
2022-12-11T07:27:43.560Z,60.87
2022-12-11T07:30:12.335Z,52.79
2022-12-11T07:32:40.181Z,51.70
2022-12-11T07:35:09.030Z,50.27
2022-12-11T07:37:38.133Z,48.31
2022-12-11T07:40:07.725Z,49.39
2022-12-11T07:42:35.521Z,49.87
2022-12-11T07:45:05.422Z,54.23
2022-12-11T07:47:34.505Z,53.19
2022-12-11T07:50:02.306Z,54.12
2022-12-11T07:52:30.187Z,52.08
2022-12-11T07:54:58.155Z,51.49
2022-12-11T07:57:26.140Z,48.17
2022-12-11T07:59:54.044Z,49.42
2022-12-11T08:02:23.354Z,47.63
2022-12-11T08:04:51.526Z,51.87
2022-12-11T08:07:19.359Z,49.14
2022-12-11T08:09:47.248Z,50.36
2022-12-11T08:12:15.112Z,48.52
2022-12-11T08:14:43.086Z,47.13
2022-12-11T08:17:10.867Z,46.62
2022-12-11T08:19:40.129Z,45.89
2022-12-11T08:22:08.353Z,46.92
2022-12-11T08:24:36.210Z,46.79
2022-12-11T08:27:04.208Z,46.53
2022-12-11T08:29:32.055Z,46.80
2022-12-11T08:31:59.852Z,45.81
2022-12-11T08:34:27.881Z,45.12
2022-12-11T08:36:57.032Z,47.76
2022-12-11T08:39:25.212Z,48.88
2022-12-11T08:41:53.061Z,48.56
2022-12-11T08:44:21.149Z,47.67
2022-12-11T08:46:49.244Z,46.47
2022-12-11T08:49:17.499Z,47.09
2022-12-11T08:51:45.304Z,46.32
2022-12-11T08:54:14.577Z,47.13
2022-12-11T08:56:42.457Z,47.10
2022-12-11T08:59:10.821Z,46.43
2022-12-11T09:01:38.645Z,47.29
2022-12-11T09:04:06.639Z,49.41
2022-12-11T09:06:34.814Z,47.36
2022-12-11T09:09:04.507Z,47.02
2022-12-11T09:11:35.824Z,47.81
2022-12-11T09:14:07.673Z,48.96
2022-12-11T09:16:41.345Z,47.79
2022-12-11T09:19:12.511Z,46.73
2022-12-11T09:21:40.370Z,48.08
2022-12-11T09:24:10.554Z,48.10
2022-12-11T09:26:39.974Z,46.70
2022-12-11T09:29:08.161Z,48.38
2022-12-11T09:31:37.362Z,46.18
2022-12-11T09:34:07.275Z,46.62
2022-12-11T09:36:35.336Z,47.19
2022-12-11T09:39:04.549Z,47.04
2022-12-11T09:41:42.056Z,47.14
2022-12-11T09:44:35.704Z,45.89
2022-12-11T09:47:03.813Z,47.98
2022-12-11T09:49:37.040Z,46.31
2022-12-11T09:52:12.503Z,48.75
2022-12-11T09:54:45.435Z,48.01
2022-12-11T09:57:25.215Z,51.67
2022-12-11T10:00:06.006Z,50.01
2022-12-11T10:02:43.651Z,54.19
2022-12-11T10:05:18.662Z,53.49
2022-12-11T10:07:49.999Z,54.53
2022-12-11T10:10:24.774Z,49.59
2022-12-11T10:13:02.995Z,52.98
2022-12-11T10:15:37.902Z,54.47
2022-12-11T10:18:08.063Z,57.06
2022-12-11T10:20:39.432Z,51.67
2022-12-11T10:23:09.020Z,51.09
2022-12-11T10:25:38.699Z,53.70
2022-12-11T10:28:15.726Z,54.34
2022-12-11T10:30:49.657Z,50.14
2022-12-11T10:33:22.483Z,48.41
2022-12-11T10:35:52.534Z,49.68
2022-12-11T10:38:23.255Z,47.54
2022-12-11T10:40:53.746Z,48.95
2022-12-11T10:43:33.821Z,48.04
2022-12-11T10:46:01.704Z,47.43
2022-12-11T10:48:29.580Z,49.12
2022-12-11T10:51:00.386Z,48.88
2022-12-11T10:53:29.074Z,47.01
2022-12-11T10:55:58.623Z,50.56
2022-12-11T10:58:31.808Z,53.46
2022-12-11T11:05:13.835Z,49.32
2022-12-11T11:07:42.025Z,47.90
2022-12-11T11:10:19.709Z,47.94
2022-12-11T11:12:49.491Z,47.27
2022-12-11T11:15:20.594Z,45.79
2022-12-11T11:17:54.881Z,46.95
2022-12-11T11:20:25.259Z,46.43
2022-12-11T11:22:57.353Z,50.40
2022-12-11T11:25:26.459Z,51.68
2022-12-11T11:27:55.797Z,48.30
2022-12-11T11:30:26.761Z,47.76
2022-12-11T11:32:56.818Z,48.00
2022-12-11T11:35:26.572Z,45.62
2022-12-11T11:38:05.782Z,48.79
2022-12-11T11:40:38.569Z,51.50
2022-12-11T11:43:15.313Z,49.61
2022-12-11T11:45:48.267Z,48.16
2022-12-11T11:48:29.849Z,49.11
2022-12-11T11:50:58.102Z,53.55
2022-12-11T11:53:28.663Z,56.38
2022-12-11T11:56:06.867Z,50.27
2022-12-11T12:11:08.094Z,54.71
2022-12-11T12:13:59.830Z,55.98
2022-12-11T12:16:55.620Z,54.26
2022-12-11T12:19:47.914Z,55.25
2022-12-11T12:22:56.134Z,55.94
2022-12-11T12:25:30.612Z,56.98
2022-12-11T12:28:15.486Z,53.63
2022-12-11T12:31:02.009Z,49.70
2022-12-11T12:33:40.970Z,52.98
2022-12-11T12:53:17.572Z,48.90
2022-12-11T13:34:00.966Z,57.83
2022-12-11T13:37:37.854Z,50.34
2022-12-11T13:53:20.988Z,49.65
2022-12-11T13:57:16.683Z,52.75
2022-12-11T14:04:21.693Z,57.81
2022-12-11T14:08:45.009Z,53.84
2022-12-11T14:12:41.585Z,55.12
2022-12-11T14:42:55.669Z,52.27
2022-12-11T14:46:26.144Z,52.74
2022-12-11T14:49:04.292Z,51.30
2022-12-11T14:55:08.257Z,58.14
2022-12-11T14:57:58.366Z,53.69
2022-12-11T15:01:24.435Z,55.00
2022-12-11T15:04:47.373Z,53.66
2022-12-11T15:07:54.573Z,60.04
2022-12-11T15:10:45.898Z,58.71
2022-12-11T15:13:48.664Z,60.63
2022-12-11T15:16:52.415Z,65.22
2022-12-11T15:23:26.819Z,65.80
2022-12-11T15:27:27.855Z,73.99
2022-12-11T15:30:47.235Z,72.86
2022-12-11T15:33:42.871Z,74.15
2022-12-11T15:36:58.692Z,77.54
2022-12-11T15:40:21.695Z,74.76
2022-12-11T15:44:07.233Z,68.20
2022-12-11T15:47:17.070Z,58.31
2022-12-11T15:51:02.484Z,60.33
2022-12-11T16:03:02.420Z,60.87
2022-12-11T16:06:27.411Z,60.68
2022-12-11T16:09:23.841Z,55.19
2022-12-11T16:12:21.850Z,58.95
2022-12-11T16:15:27.873Z,55.17
2022-12-11T16:18:28.091Z,57.67
2022-12-11T16:21:04.727Z,58.13
2022-12-11T16:24:04.277Z,72.40
2022-12-11T16:35:55.663Z,62.83
2022-12-11T16:42:23.070Z,77.32
2022-12-11T16:44:58.587Z,82.63
2022-12-11T16:47:47.675Z,71.67
2022-12-11T16:50:21.497Z,73.68
2022-12-11T16:52:53.034Z,69.07
2022-12-11T16:55:23.974Z,73.22
2022-12-11T16:58:01.798Z,69.53
2022-12-11T17:00:37.407Z,79.09
2022-12-11T17:03:20.934Z,68.85
2022-12-11T17:05:54.307Z,72.00
2022-12-11T17:08:33.095Z,67.63
2022-12-11T17:11:30.986Z,64.68
2022-12-11T17:14:42.594Z,58.63
2022-12-11T17:19:59.602Z,66.61
2022-12-11T17:22:59.283Z,69.68
2022-12-11T17:25:34.524Z,66.87
2022-12-11T17:28:03.908Z,88.50
2022-12-11T17:30:34.426Z,76.99
2022-12-11T17:33:22.015Z,71.86
2022-12-11T17:35:54.745Z,65.63
2022-12-11T17:38:23.924Z,71.39
2022-12-11T17:40:55.201Z,64.30
2022-12-11T17:43:24.833Z,63.15
2022-12-11T17:45:55.682Z,75.77
2022-12-11T17:48:30.267Z,76.00
2022-12-11T17:50:59.529Z,80.43
2022-12-11T17:53:51.619Z,75.36
2022-12-11T17:56:38.914Z,81.68
2022-12-11T18:03:17.040Z,89.82
2022-12-11T18:06:28.497Z,66.69
2022-12-11T18:09:05.974Z,58.68
2022-12-11T18:11:35.543Z,77.35
2022-12-11T18:14:03.973Z,85.54
2022-12-11T18:16:36.006Z,83.31
2022-12-11T18:19:08.435Z,84.00
2022-12-11T18:21:41.602Z,85.84
2022-12-11T18:24:16.188Z,68.69
2022-12-11T18:26:45.094Z,74.05
2022-12-11T18:29:13.914Z,67.98
2022-12-11T18:31:47.930Z,65.54
2022-12-11T18:34:19.088Z,79.49
2022-12-11T18:36:54.932Z,70.59
2022-12-11T18:39:25.294Z,61.83
2022-12-11T18:42:24.354Z,61.42
2022-12-11T18:44:43.404Z,61.13
2022-12-11T18:47:12.100Z,61.48
2022-12-11T18:49:43.110Z,61.09
2022-12-11T18:52:16.044Z,79.59
2022-12-11T18:54:49.447Z,66.79
2022-12-11T18:57:18.640Z,70.69
2022-12-11T18:59:48.423Z,71.01
2022-12-11T19:02:16.463Z,70.56
2022-12-11T19:04:46.164Z,84.43
2022-12-11T19:07:14.696Z,79.99
2022-12-11T19:09:47.820Z,68.40
2022-12-11T19:12:19.972Z,75.01
2022-12-11T19:15:02.901Z,85.11
2022-12-11T19:17:31.547Z,74.52
2022-12-11T19:20:25.407Z,83.53
2022-12-11T19:22:59.566Z,82.98
2022-12-11T19:25:27.647Z,81.06
2022-12-11T19:27:58.689Z,77.05
2022-12-11T19:30:29.105Z,89.72
2022-12-11T19:33:01.760Z,100.00
2022-12-11T19:35:31.510Z,83.96
2022-12-11T19:37:59.799Z,83.85
2022-12-11T19:40:27.820Z,96.30
2022-12-11T19:42:56.228Z,76.90
2022-12-11T19:45:24.348Z,72.06
2022-12-11T19:47:53.190Z,68.25
2022-12-11T19:50:25.483Z,78.59
2022-12-11T19:52:56.805Z,73.41
2022-12-11T19:55:24.881Z,94.53
2022-12-11T19:57:53.312Z,99.78
2022-12-11T20:00:21.595Z,80.14
2022-12-11T20:02:50.656Z,100.00
2022-12-11T20:05:18.927Z,100.00
2022-12-11T20:07:47.188Z,76.66
2022-12-11T20:10:17.119Z,95.39
2022-12-11T20:12:48.445Z,100.00
2022-12-11T20:15:19.484Z,100.00
2022-12-11T20:17:47.713Z,98.78
2022-12-11T20:20:18.924Z,92.07
2022-12-11T20:22:47.861Z,74.76
2022-12-11T20:25:28.256Z,87.35
2022-12-11T20:27:58.060Z,79.90
2022-12-11T20:30:28.305Z,73.94
2022-12-11T20:32:56.688Z,81.46
2022-12-11T20:35:26.371Z,67.65
2022-12-11T20:37:57.701Z,82.12
2022-12-11T20:40:42.214Z,70.05
2022-12-11T20:43:10.613Z,74.05
2022-12-11T20:45:38.994Z,74.77
2022-12-11T20:48:07.784Z,74.83
2022-12-11T20:50:36.052Z,81.95
2022-12-11T20:53:04.356Z,77.22
2022-12-11T20:55:33.946Z,85.22
2022-12-11T20:58:02.441Z,78.49
2022-12-11T21:01:21.700Z,77.02
2022-12-11T21:03:53.574Z,76.15
2022-12-11T21:06:23.131Z,96.43
2022-12-11T21:08:51.705Z,100.00
2022-12-11T21:11:29.703Z,95.52
2022-12-11T21:13:59.284Z,77.79
2022-12-11T21:16:28.372Z,87.50
2022-12-11T21:18:59.911Z,95.80
2022-12-11T21:21:29.063Z,88.09
2022-12-11T21:23:57.193Z,88.62
2022-12-11T21:26:27.355Z,97.22
2022-12-11T21:28:57.958Z,100.00
2022-12-11T21:31:29.123Z,93.86
2022-12-11T21:33:58.916Z,95.19
2022-12-11T21:36:27.821Z,88.60
2022-12-11T21:38:55.910Z,88.55
2022-12-11T21:41:29.035Z,84.78
2022-12-11T21:46:55.895Z,78.25
2022-12-11T21:49:26.161Z,92.94
2022-12-11T21:51:55.464Z,93.66
2022-12-11T21:54:24.067Z,100.00
2022-12-11T21:56:54.907Z,100.00
2022-12-11T21:59:23.457Z,100.00
2022-12-11T22:01:51.971Z,100.00
2022-12-11T22:04:20.449Z,100.00
2022-12-11T22:06:48.946Z,100.00
2022-12-11T22:09:18.142Z,100.00
2022-12-11T22:11:47.345Z,100.00
2022-12-11T22:14:18.793Z,100.00
2022-12-11T22:16:48.191Z,90.70
2022-12-11T22:19:16.665Z,92.12
2022-12-11T22:21:44.713Z,100.00
2022-12-11T22:24:12.926Z,100.00
2022-12-11T22:26:41.303Z,100.00
2022-12-11T22:29:10.250Z,100.00
2022-12-11T22:31:40.536Z,100.00
2022-12-11T22:34:08.526Z,100.00
2022-12-11T22:36:40.169Z,100.00
2022-12-11T22:39:08.613Z,100.00
2022-12-11T22:41:41.930Z,89.05
2022-12-11T22:44:15.004Z,80.07
2022-12-11T22:46:49.702Z,62.47
2022-12-11T22:49:18.786Z,71.53
2022-12-11T22:51:48.948Z,77.90
2022-12-11T22:54:20.500Z,58.22
2022-12-11T22:56:48.959Z,66.18
2022-12-11T22:59:17.472Z,61.13
2022-12-11T23:01:50.827Z,59.18
2022-12-11T23:04:20.438Z,82.93
2022-12-11T23:06:49.041Z,71.58
2022-12-11T23:09:18.163Z,100.00
2022-12-11T23:11:47.601Z,75.40
2022-12-11T23:14:18.982Z,67.58
2022-12-11T23:16:49.472Z,75.82
2022-12-11T23:19:22.276Z,66.91
2022-12-11T23:21:54.657Z,68.57
2022-12-11T23:24:24.938Z,64.69
2022-12-11T23:26:54.082Z,66.89
2022-12-11T23:29:22.386Z,64.59
2022-12-11T23:31:51.699Z,83.98
2022-12-11T23:34:20.147Z,93.81
2022-12-11T23:36:48.098Z,84.15
2022-12-11T23:39:16.611Z,81.84
2022-12-11T23:41:44.945Z,74.47
2022-12-11T23:44:13.276Z,74.97
2022-12-11T23:46:42.600Z,76.00
2022-12-11T23:49:12.866Z,69.99
2022-12-11T23:51:43.662Z,79.44
2022-12-11T23:54:11.598Z,84.91
2022-12-11T23:56:40.077Z,83.87
2022-12-11T23:59:08.157Z,92.70
